createdAt,value
2018-10-03T00:08:45.442Z,11.90
2018-10-03T00:11:25.929Z,11.90
2018-10-03T00:31:20.812Z,11.90
2018-10-03T00:33:56.658Z,12.00
2018-10-03T00:56:39.399Z,12.00
2018-10-03T00:59:16.478Z,12.00
2018-10-03T01:01:54.384Z,12.00
2018-10-03T01:04:31.464Z,12.00
2018-10-03T01:07:08.340Z,12.10
2018-10-03T01:09:45.220Z,12.10
2018-10-03T01:12:20.454Z,12.20
2018-10-03T01:14:56.514Z,12.20
2018-10-03T01:17:34.417Z,12.20
2018-10-03T01:20:09.446Z,12.30
2018-10-03T01:22:44.483Z,12.20
2018-10-03T01:25:19.510Z,12.20
2018-10-03T01:27:55.922Z,12.20
2018-10-03T01:30:31.218Z,12.20
2018-10-03T01:33:07.479Z,12.30
2018-10-03T01:35:43.557Z,12.30
2018-10-03T01:38:20.457Z,12.30
2018-10-03T01:40:54.222Z,12.20
2018-10-03T01:43:31.101Z,12.20
2018-10-03T01:46:09.408Z,12.30
2018-10-03T01:48:43.417Z,12.30
2018-10-03T01:51:18.041Z,12.40
2018-10-03T01:53:54.714Z,12.30
2018-10-03T01:56:33.431Z,12.20
2018-10-03T01:59:11.538Z,12.20
2018-10-03T02:01:54.151Z,12.30
2018-10-03T02:04:34.504Z,12.20
2018-10-03T02:07:14.937Z,12.30
2018-10-03T02:09:49.487Z,12.20
2018-10-03T02:12:25.545Z,12.20
2018-10-03T02:15:02.423Z,12.20
2018-10-03T02:17:39.503Z,12.30
2018-10-03T02:20:15.354Z,12.20
2018-10-03T02:22:51.414Z,12.30
2018-10-03T02:25:26.450Z,12.30
2018-10-03T02:28:02.505Z,12.30
2018-10-03T02:30:38.361Z,12.30
2018-10-03T02:33:12.941Z,12.30
2018-10-03T02:35:48.428Z,12.30
2018-10-03T02:38:24.480Z,12.40
2018-10-03T02:40:58.492Z,12.40
2018-10-03T02:43:34.554Z,12.40
2018-10-03T02:46:08.564Z,12.40
2018-10-03T02:48:43.591Z,12.30
2018-10-03T02:51:19.954Z,12.20
2018-10-03T02:53:54.479Z,12.20
2018-10-03T02:56:30.536Z,12.20
2018-10-03T02:59:04.547Z,12.20
2018-10-03T03:01:40.017Z,12.30
2018-10-03T03:04:15.434Z,12.30
2018-10-03T03:06:50.261Z,12.30
2018-10-03T03:09:25.911Z,12.30
2018-10-03T03:12:02.580Z,12.20
2018-10-03T03:14:38.434Z,12.30
2018-10-03T03:17:11.829Z,12.30
2018-10-03T03:19:50.546Z,12.30
2018-10-03T03:22:25.582Z,12.30
2018-10-03T03:25:01.002Z,12.30
2018-10-03T03:27:37.695Z,12.30
2018-10-03T03:30:11.501Z,12.30
2018-10-03T03:32:47.557Z,12.30
2018-10-03T03:35:22.596Z,12.30
2018-10-03T03:38:00.493Z,12.30
2018-10-03T03:40:39.426Z,12.30
2018-10-03T03:43:22.013Z,12.30
2018-10-03T03:46:00.544Z,12.30
2018-10-03T03:48:34.758Z,12.30
2018-10-03T03:51:09.585Z,12.20
2018-10-03T03:53:44.417Z,12.10
2018-10-03T03:56:19.008Z,12.00
2018-10-03T03:58:54.499Z,12.00
2018-10-03T04:01:30.543Z,11.90
2018-10-03T04:04:06.804Z,11.90
2018-10-03T04:06:46.778Z,11.90
2018-10-03T04:09:21.583Z,12.00
2018-10-03T04:11:57.845Z,12.00
2018-10-03T04:14:34.717Z,12.00
2018-10-03T04:17:10.592Z,12.10
2018-10-03T04:19:47.449Z,12.10
2018-10-03T04:22:29.653Z,12.10
2018-10-03T04:25:10.090Z,12.00
2018-10-03T04:27:46.479Z,11.90
2018-10-03T04:30:22.532Z,12.00
2018-10-03T04:32:58.795Z,12.00
2018-10-03T04:35:41.651Z,12.10
2018-10-03T04:38:16.650Z,12.20
2018-10-03T04:40:53.091Z,12.10
2018-10-03T04:43:34.921Z,12.10
2018-10-03T04:46:16.697Z,12.10
2018-10-03T04:48:54.604Z,12.20
2018-10-03T04:51:34.543Z,12.10
2018-10-03T04:54:10.603Z,12.00
2018-10-03T04:56:46.102Z,12.00
2018-10-03T04:59:21.696Z,12.10
2018-10-03T05:01:59.800Z,12.10
2018-10-03T05:04:33.603Z,12.20
2018-10-03T05:07:09.661Z,12.20
2018-10-03T05:09:46.098Z,12.30
2018-10-03T05:29:40.727Z,12.20
2018-10-03T05:32:16.580Z,12.20
2018-10-03T05:34:51.409Z,12.30
2018-10-03T05:54:44.637Z,12.40
2018-10-03T05:57:23.705Z,12.40
2018-10-03T05:59:59.772Z,12.40
2018-10-03T06:02:40.145Z,12.40
2018-10-03T06:22:35.739Z,12.50
2018-10-03T06:25:10.770Z,12.60
2018-10-03T06:45:23.803Z,12.80
2018-10-03T06:48:01.703Z,12.80
2018-10-03T06:50:37.201Z,12.90
2018-10-03T06:53:12.795Z,13.00
2018-10-03T07:13:16.821Z,13.40
2018-10-03T07:16:00.864Z,13.50
2018-10-03T07:18:39.785Z,13.70
2018-10-03T07:21:20.759Z,13.70
2018-10-03T07:23:58.656Z,13.70
2018-10-03T07:26:39.631Z,13.80
2018-10-03T07:29:18.805Z,13.80
2018-10-03T07:49:21.964Z,13.70
2018-10-03T07:52:01.957Z,13.90
2018-10-03T08:11:55.887Z,14.50
2018-10-03T08:14:32.970Z,14.50
2018-10-03T08:34:26.136Z,14.30
2018-10-03T08:37:14.080Z,14.40
2018-10-03T08:57:09.896Z,14.30
2018-10-03T08:59:46.985Z,14.30
2018-10-03T09:22:27.058Z,14.80
2018-10-03T09:25:04.343Z,14.90
2018-10-03T09:45:03.864Z,15.00
2018-10-03T09:47:41.965Z,15.00
2018-10-03T10:07:34.924Z,15.20
2018-10-03T10:27:33.025Z,15.10
2018-10-03T10:47:26.984Z,15.70
2018-10-03T10:50:03.044Z,15.70
2018-10-03T10:52:42.998Z,15.70
2018-10-03T10:55:18.028Z,15.80
2018-10-03T10:57:53.057Z,15.50
2018-10-03T11:17:44.992Z,16.00
2018-10-03T11:20:34.664Z,16.10
2018-10-03T11:40:26.094Z,16.00
2018-10-03T11:43:05.224Z,16.10
2018-10-03T11:54:19.012Z,16.10
2018-10-03T11:56:57.135Z,16.20
2018-10-03T11:59:33.016Z,16.30
2018-10-03T12:02:10.052Z,16.30
2018-10-03T12:22:01.989Z,16.40
2018-10-03T12:24:38.048Z,16.50
2018-10-03T12:44:35.310Z,16.80
2018-10-03T12:47:19.037Z,16.80
2018-10-03T13:07:11.081Z,16.90
2018-10-03T13:09:45.705Z,16.90
2018-10-03T13:12:24.015Z,16.80
2018-10-03T13:32:16.524Z,17.20
2018-10-03T13:34:53.029Z,17.20
2018-10-03T13:37:30.145Z,17.30
2018-10-03T13:40:08.017Z,17.30
2018-10-03T13:59:59.133Z,17.00
2018-10-03T14:02:36.012Z,17.00
2018-10-03T14:22:29.992Z,17.00
2018-10-03T14:25:09.325Z,16.90
2018-10-03T14:27:48.046Z,17.00
2018-10-03T14:47:41.411Z,16.90
2018-10-03T14:50:21.370Z,16.90
2018-10-03T15:10:19.595Z,17.10
2018-10-03T15:32:55.215Z,17.10
2018-10-03T15:35:32.647Z,17.10
2018-10-03T15:38:08.358Z,17.00
2018-10-03T15:40:45.613Z,17.10
2018-10-03T15:43:21.089Z,17.10
2018-10-03T16:03:15.070Z,16.90
2018-10-03T16:05:57.273Z,16.90
2018-10-03T16:25:50.630Z,16.70
2018-10-03T16:28:26.902Z,16.70
2018-10-03T16:48:19.863Z,16.40
2018-10-03T16:50:57.641Z,16.40
2018-10-03T16:53:39.145Z,16.40
2018-10-03T16:56:16.229Z,16.40
2018-10-03T16:58:53.148Z,16.40
2018-10-03T17:18:55.498Z,16.00
2018-10-03T17:21:32.156Z,15.90
2018-10-03T17:24:07.660Z,15.90
2018-10-03T17:26:43.246Z,15.90
2018-10-03T17:29:21.147Z,15.90
2018-10-03T17:31:57.204Z,15.90
2018-10-03T17:34:32.238Z,15.80
2018-10-03T17:37:08.675Z,15.70
2018-10-03T17:39:43.946Z,15.60
2018-10-03T17:42:21.229Z,15.70
2018-10-03T17:44:57.289Z,15.70
2018-10-03T17:47:34.572Z,15.60
2018-10-03T17:50:08.789Z,15.60
2018-10-03T17:52:45.255Z,15.50
2018-10-03T17:55:21.105Z,15.60
2018-10-03T17:57:58.599Z,15.50
2018-10-03T18:00:34.244Z,15.50
2018-10-03T18:03:10.306Z,15.50
2018-10-03T18:05:50.256Z,15.50
2018-10-03T18:08:29.181Z,15.50
2018-10-03T18:11:06.261Z,15.60
2018-10-03T18:13:42.647Z,15.50
2018-10-03T18:16:19.880Z,15.50
2018-10-03T18:18:55.302Z,15.40
2018-10-03T18:21:30.282Z,15.50
2018-10-03T18:24:07.985Z,15.40
2018-10-03T18:26:43.470Z,15.40
2018-10-03T18:29:18.252Z,15.40
2018-10-03T18:31:53.316Z,15.40
2018-10-03T18:51:47.736Z,15.20
2018-10-03T18:54:23.329Z,15.20
2018-10-03T19:14:17.311Z,14.60
2018-10-03T19:16:56.237Z,14.60
2018-10-03T19:19:31.271Z,14.50
2018-10-03T19:22:07.323Z,14.50
2018-10-03T19:24:45.224Z,14.50
2018-10-03T19:44:40.231Z,14.30
2018-10-03T19:47:18.341Z,14.20
2018-10-03T20:07:27.277Z,14.00
2018-10-03T20:27:18.426Z,13.90
2018-10-03T20:50:00.799Z,13.80
2018-10-03T20:52:38.211Z,13.70
2018-10-03T20:55:14.795Z,13.60
2018-10-03T20:57:50.328Z,13.60
2018-10-03T21:17:44.107Z,13.40
2018-10-03T21:20:19.339Z,13.40
2018-10-03T21:40:11.684Z,13.30
2018-10-03T21:42:48.360Z,13.30
2018-10-03T21:45:23.393Z,13.20
2018-10-03T21:47:58.424Z,13.20
2018-10-03T21:50:33.457Z,13.10
2018-10-03T22:10:27.446Z,13.10
2018-10-03T22:13:04.323Z,13.10
2018-10-03T22:32:56.666Z,12.90
2018-10-03T22:35:33.134Z,12.90
2018-10-03T22:55:31.414Z,12.70
2018-10-03T22:58:07.474Z,12.70
2018-10-03T23:00:42.709Z,12.70
2018-10-03T23:03:19.388Z,12.70
2018-10-03T23:05:55.460Z,12.70
2018-10-03T23:25:47.374Z,12.60
2018-10-03T23:28:24.459Z,12.60
2018-10-03T23:48:16.421Z,12.50
2018-10-03T23:50:50.609Z,12.50
2018-10-03T23:53:26.457Z,12.60
2018-10-03T23:56:02.723Z,12.50
2018-10-03T23:58:36.732Z,12.50
